createdAt,value
2018-09-11T00:05:49.000Z,49.993
2018-09-11T00:15:49.000Z,50.012
2018-09-11T00:25:49.000Z,50.174
2018-09-11T00:35:49.000Z,50.262
2018-09-11T00:45:49.000Z,50.226
2018-09-11T00:55:49.000Z,50.3
2018-09-11T01:05:49.000Z,50.244
2018-09-11T01:15:49.000Z,50.199
2018-09-11T01:25:49.000Z,50.338
2018-09-11T01:35:49.000Z,50.326
2018-09-11T01:45:49.000Z,50.368
2018-09-11T01:55:49.000Z,50.419
2018-09-11T02:05:49.000Z,50.484
2018-09-11T02:15:49.000Z,50.525
2018-09-11T02:25:49.000Z,50.609
2018-09-11T02:35:49.000Z,50.576
2018-09-11T02:45:49.000Z,50.638
2018-09-11T02:55:49.000Z,50.723
2018-09-11T03:05:49.000Z,50.689
2018-09-11T03:15:50.000Z,50.719
2018-09-11T03:25:50.000Z,50.731
2018-09-11T03:35:50.000Z,50.716
2018-09-11T03:45:50.000Z,50.758
2018-09-11T03:55:50.000Z,50.747
2018-09-11T04:05:50.000Z,50.724
2018-09-11T04:15:50.000Z,50.786
2018-09-11T04:25:50.000Z,50.74
2018-09-11T04:35:50.000Z,50.737
2018-09-11T04:45:50.000Z,50.704
2018-09-11T04:55:54.000Z,50.711
2018-09-11T05:05:50.000Z,50.666
2018-09-11T05:15:50.000Z,50.706
2018-09-11T05:25:50.000Z,50.65
2018-09-11T05:35:50.000Z,50.616
2018-09-11T05:45:50.000Z,50.506
2018-09-11T05:55:50.000Z,50.474
2018-09-11T06:05:50.000Z,50.368
2018-09-11T06:15:50.000Z,50.378
2018-09-11T06:25:50.000Z,50.431
2018-09-11T06:35:50.000Z,50.314
2018-09-11T06:45:50.000Z,50.217
2018-09-11T06:55:50.000Z,50.207
2018-09-11T07:05:50.000Z,50.049
2018-09-11T07:15:50.000Z,49.934
2018-09-11T07:25:50.000Z,49.78
2018-09-11T07:35:50.000Z,49.678
2018-09-11T07:45:50.000Z,49.703
2018-09-11T07:55:50.000Z,49.623
2018-09-11T08:05:50.000Z,49.691
2018-09-11T08:15:50.000Z,49.7
2018-09-11T08:25:50.000Z,49.64
2018-09-11T08:35:50.000Z,49.787
2018-09-11T08:45:50.000Z,49.622
2018-09-11T08:55:50.000Z,49.584
2018-09-11T09:15:50.000Z,49.546
2018-09-11T09:25:50.000Z,49.574
2018-09-11T09:35:50.000Z,49.5
2018-09-11T09:45:50.000Z,49.159
2018-09-11T09:55:50.000Z,48.941
2018-09-11T10:05:50.000Z,48.801
2018-09-11T10:15:50.000Z,48.636
2018-09-11T10:25:50.000Z,48.245
2018-09-11T10:35:50.000Z,48.025
2018-09-11T10:45:50.000Z,47.802
2018-09-11T10:55:50.000Z,47.468
2018-09-11T11:05:50.000Z,47.17
2018-09-11T11:15:50.000Z,46.763
2018-09-11T11:25:50.000Z,46.508
2018-09-11T11:45:51.000Z,46.057
2018-09-11T11:55:51.000Z,45.898
2018-09-11T12:05:51.000Z,45.593
2018-09-11T12:15:51.000Z,45.441
2018-09-11T12:25:51.000Z,45.048
2018-09-11T12:35:51.000Z,45.077
2018-09-11T12:45:51.000Z,45.685
2018-09-11T12:55:51.000Z,45.292
2018-09-11T13:05:51.000Z,44.58
2018-09-11T13:15:51.000Z,44.665
2018-09-11T13:25:51.000Z,44.271
2018-09-11T13:35:51.000Z,44.048
2018-09-11T13:45:51.000Z,43.819
2018-09-11T13:55:51.000Z,43.78
2018-09-11T14:05:51.000Z,43.788
2018-09-11T14:15:51.000Z,43.765
2018-09-11T14:25:51.000Z,43.572
2018-09-11T14:35:51.000Z,43.888
2018-09-11T14:45:51.000Z,43.845
2018-09-11T14:55:51.000Z,43.868
2018-09-11T15:05:51.000Z,43.771
2018-09-11T15:15:51.000Z,43.653
2018-09-11T15:25:51.000Z,43.521
2018-09-11T15:35:51.000Z,43.752
2018-09-11T15:45:51.000Z,44.32
2018-09-11T15:55:51.000Z,45.058
2018-09-11T16:05:51.000Z,45.569
2018-09-11T16:15:51.000Z,45.958
2018-09-11T16:25:51.000Z,46.133
2018-09-11T16:35:51.000Z,46.51
2018-09-11T16:45:54.000Z,46.301
2018-09-11T16:55:51.000Z,46.438
2018-09-11T17:05:51.000Z,46.339
2018-09-11T17:15:51.000Z,46.128
2018-09-11T17:35:51.000Z,46.253
2018-09-11T17:45:51.000Z,46.327
2018-09-11T17:55:51.000Z,46.346
2018-09-11T18:05:51.000Z,46.465
2018-09-11T18:15:51.000Z,46.475
2018-09-11T18:25:51.000Z,46.636
2018-09-11T18:35:51.000Z,46.468
2018-09-11T18:45:51.000Z,46.492
2018-09-11T18:55:51.000Z,46.457
2018-09-11T19:05:51.000Z,46.586
2018-09-11T19:15:51.000Z,46.571
2018-09-11T19:25:51.000Z,46.547
2018-09-11T19:35:52.000Z,46.799
2018-09-11T19:45:51.000Z,46.916
2018-09-11T19:55:52.000Z,47.069
2018-09-11T20:05:52.000Z,47.242
2018-09-11T20:15:52.000Z,47.327
2018-09-11T20:25:54.000Z,47.393
2018-09-11T20:35:52.000Z,47.414
2018-09-11T20:45:52.000Z,47.595
2018-09-11T20:55:52.000Z,47.667
2018-09-11T21:05:52.000Z,47.885
2018-09-11T21:15:52.000Z,47.991
2018-09-11T21:25:52.000Z,48
2018-09-11T21:35:52.000Z,47.878
2018-09-11T21:45:52.000Z,47.844
2018-09-11T21:55:52.000Z,47.7
2018-09-11T22:05:52.000Z,47.61
2018-09-11T22:15:52.000Z,47.423
2018-09-11T22:25:52.000Z,47.344
2018-09-11T22:35:52.000Z,47.397
2018-09-11T22:45:53.000Z,47.515
2018-09-11T22:55:52.000Z,47.677
2018-09-11T23:05:52.000Z,47.598
2018-09-11T23:15:52.000Z,47.662
2018-09-11T23:25:52.000Z,47.498
2018-09-11T23:35:52.000Z,47.387
2018-09-11T23:45:52.000Z,47.385
2018-09-11T23:55:52.000Z,47.428
